KSKA/SKA METAR and TAF weather

Enter ICAO airport designator
Station Type Date Time Source
KSKA METAR 2021/05/17 20:58 UTC NOAA

KSKA 172058Z AUTO 21015G22KT 10SM CLR 26/02 A2979 RMK AO2 SLP077 T02600020 57007 $


Station Type Date Time Source
KSKA Decoded METAR 2021/05/17 20:58 UTC NOAA

Fairchild Air Force Base, WA, United States (KSKA) 47-37N 117-39W
May 17, 2021 - 04:58 PM EDT / 2021.05.17 2058 UTC
Wind: from the SSW (210 degrees) at 17 MPH (15 KT) gusting to 25 MPH (22 KT):0
Visibility: 10 mile(s):0
Sky conditions: clear
Temperature: 78.8 F (26.0 C)
Dew Point: 35.6 F (2.0 C)
Relative Humidity: 20%
Pressure (altimeter): 29.79 in. Hg (1008 hPa)
Pressure tendency: 0.02 inches (0.7 hPa) lower than three hours ago
ob: KSKA 172058Z AUTO 21015G22KT 10SM CLR 26/02 A2979 RMK AO2 SLP077 T02600020 57007
cycle: 21

Station Type Date Time Source
KSKA TAF 2021/05/17 19:06 UTC NOAA

TAF KSKA 171900Z 1719/1901 20012G18KT 9999 SKC QNH2978INS
BECMG 1720/1721 22015G25KT 9999 SCT100 QNH2972INS
BECMG 1802/1803 25012KT 9999 SCT075 SCT100 QNH2975INS
BECMG 1808/1809 23012KT 9999 FEW060 SCT085 QNH2983INS
BECMG 1813/1814 24020G28KT 9999 BKN055 620602 QNH2988INS TX27/1722Z TN09/1812Z

Example: see airport list